logo
Search for airport 
image banner adimage banner adimage banner ad
image banner ad

FLKJ - Kamfinsa

Located in Kanja, Zambia

ICAO - FLKJ, IATA -

Data provided by Airmate  

General information

Coordinates: S12°54'24" E28°19'58"
Elevation is 3370 feet MSL.
Magnetic variation is -6° East
View others Airports in Western Province

Operational data

Special qualification required
Current time UTC:
Current local time:
TAF: TAF FLSK 132200Z 1400/1506 15010KT 9999 FEW///CB BKN090 BECMG 1402/1404 9000 FU NSC BECMG 1406/1408 12010KT SCT015 BECMG 1410/1412 BKN030
View NOTAMs / SUP AIP / TFR affecting this airport [VIEW]
Communications frequencies: [VIEW]

Runways:

RWY identifierQFULength (ft)Width (ft)SurfaceLDA (ft)
13130°262695GRAS
31310°262695GRAS

Airport contact information

Address: Kanja Zambia

Satellite view of FLKJ